Terminal Aerodrome Forecast
Issued by NWS Shreveport, LA

Home | Current Version | Previous Version | Text Only | Print | Product List | Glossary On
Versions: 1 2 3 4 5 6 7 8 9 10 11 12 13 14 15 16 17
650
FTUS44 KSHV 080238 AAA
TAFSHV
TAF AMD
KSHV 080238Z 0803/0824 07007KT P6SM -DZ OVC015
     FM080500 02007KT P6SM VCSH OVC012
      TEMPO 0805/0809 6SM -SHRA BR OVC008
     FM080900 02010KT P6SM VCSH SCT009 OVC015
     FM081300 02012G18KT P6SM BKN025 OVC150
     FM081800 36012G18KT P6SM BKN060 OVC150=

USA.gov is the U.S. government's official web portal to all federal, state and local government web resources and services.